»·PEaware :: 9K2JM KMAF-KLCQ

9K2JM :: KMAF-KLCQ

FLIGHT INFORMATION

Flight Status: Arrived
Operator: Unknown
More flights by this operator :: More flights under this callsign
Pilot: Jasem M. (4981)
Aircraft: CIRRUS SR-22
(SR22)
More flights by this aircraft type
Origin: KMAF Midland Intl
United States
Destination: KLCQ Lake City Mun
United States
More flights between these airports :: More routes between these airports
Route:
File this flight plan on PilotEdge
Remarks:
Altitude:
(Current/Filed)
9,500ft
Speed:
(Current/Filed)
180kts
Departed: 16-Sep-16 08:42 AM
Arrived: 16-Sep-16 02:47 PM
Distance/Time
Traveled:
1012nm/6:05
Distance/Time
To Go:
Arrived

Flight Plot

Page will automatically refresh every two minutes.


Map Options




Map Legend


Flown Route
Filed Route
Departure Airport
Arrival Airport
Navaid (VOR, NDB)
Fix

Horizontal Profiles

Position Reports

Time Latitude Longitude Heading Altitude Ground
Speed
16-Sep-16 08:29 31.939274 -102.207105 354 2874ft 0kts
16-Sep-16 08:30 31.939274 -102.207105 354 2874ft 0kts
16-Sep-16 08:31 31.939307 -102.207094 41 2874ft 1kts
16-Sep-16 08:32 31.939307 -102.207094 41 2874ft 1kts
16-Sep-16 08:33 31.939307 -102.207094 41 2874ft 1kts
16-Sep-16 08:34 31.939307 -102.207094 41 2874ft 1kts
16-Sep-16 08:35 31.939308 -102.206765 46 2874ft 4kts
16-Sep-16 08:36 31.942891 -102.207754 311 2874ft 22kts
16-Sep-16 08:37 31.945087 -102.213087 290 2874ft 17kts
16-Sep-16 08:38 31.947277 -102.216183 88 2874ft 8kts
16-Sep-16 08:39 31.942771 -102.201728 109 3175ft 81kts
16-Sep-16 08:40 31.940223 -102.174179 98 4195ft 95kts
16-Sep-16 08:41 31.938421 -102.138486 98 5224ft 121kts
16-Sep-16 08:42 31.936533 -102.096283 97 6236ft 135kts
16-Sep-16 08:43 31.934605 -102.050686 97 7242ft 143kts
16-Sep-16 08:44 31.932631 -102.003123 96 8243ft 148kts
16-Sep-16 08:45 31.924555 -101.955836 116 9250ft 148kts
16-Sep-16 08:46 31.907205 -101.906965 116 9510ft 172kts
16-Sep-16 08:47 31.888404 -101.853906 116 9507ft 178kts
16-Sep-16 08:48 31.869171 -101.800252 117 9506ft 179kts
16-Sep-16 08:49 31.849656 -101.746118 117 9507ft 179kts
16-Sep-16 08:50 31.830139 -101.692119 117 9506ft 179kts
16-Sep-16 08:51 31.810509 -101.637871 117 9504ft 179kts
16-Sep-16 08:52 31.790943 -101.583932 117 9501ft 179kts
16-Sep-16 08:53 31.771337 -101.529925 117 9499ft 179kts
16-Sep-16 08:54 31.751517 -101.475637 117 9499ft 179kts
16-Sep-16 08:55 31.731830 -101.421702 117 9499ft 179kts
16-Sep-16 08:56 31.712179 -101.367877 117 9499ft 179kts
16-Sep-16 08:57 31.692338 -101.313541 117 9499ft 180kts
16-Sep-16 08:58 31.675928 -101.268695 117 9499ft 179kts
16-Sep-16 08:59 31.652761 -101.205528 116 9502ft 179kts
16-Sep-16 09:00 31.636315 -101.160731 116 9503ft 179kts
16-Sep-16 09:01 31.616422 -101.106785 116 9506ft 179kts
16-Sep-16 09:02 31.596639 -101.053106 116 9508ft 179kts
16-Sep-16 09:03 31.576721 -100.999026 116 9509ft 180kts
16-Sep-16 09:04 31.556753 -100.945161 115 9496ft 182kts
16-Sep-16 09:05 31.536536 -100.890478 113 9490ft 185kts
16-Sep-16 09:06 31.516521 -100.835600 114 9490ft 186kts
16-Sep-16 09:07 31.495828 -100.779583 113 9490ft 186kts
16-Sep-16 09:08 31.475163 -100.723876 114 9490ft 187kts
16-Sep-16 09:09 31.454382 -100.668007 114 9490ft 187kts
16-Sep-16 09:10 31.434086 -100.613839 114 9490ft 186kts
16-Sep-16 09:11 31.413251 -100.558122 114 9490ft 186kts
16-Sep-16 09:12 31.392413 -100.502392 114 9490ft 186kts
16-Sep-16 09:13 31.371743 -100.446465 111 9490ft 187kts
16-Sep-16 09:14 31.352633 -100.390115 111 9490ft 187kts
16-Sep-16 09:15 31.333463 -100.333623 111 9490ft 187kts
16-Sep-16 09:16 31.314227 -100.277050 111 9491ft 187kts
16-Sep-16 09:17 31.295004 -100.220627 111 9491ft 187kts
16-Sep-16 09:18 31.275709 -100.164066 111 9491ft 187kts
16-Sep-16 09:19 31.256491 -100.107844 111 9491ft 187kts
16-Sep-16 09:20 31.237108 -100.051310 112 9490ft 187kts
16-Sep-16 09:21 31.217678 -99.994866 111 9490ft 187kts
16-Sep-16 09:22 31.198275 -99.938472 111 9491ft 187kts
16-Sep-16 09:23 31.179051 -99.882457 112 9490ft 187kts
16-Sep-16 09:24 31.159938 -99.826378 112 9491ft 187kts
16-Sep-16 09:25 31.140546 -99.770006 112 9488ft 187kts
16-Sep-16 09:26 31.120939 -99.713301 112 9487ft 188kts
16-Sep-16 09:27 31.101353 -99.656772 112 9487ft 188kts
16-Sep-16 09:28 31.081689 -99.600136 112 9489ft 188kts
16-Sep-16 09:29 31.062133 -99.543983 111 9493ft 188kts
16-Sep-16 09:30 31.042490 -99.487326 111 9498ft 188kts
16-Sep-16 09:31 31.022759 -99.430902 111 9500ft 188kts
16-Sep-16 09:32 31.002920 -99.374582 111 9500ft 186kts
16-Sep-16 09:33 30.983343 -99.318708 110 9497ft 185kts
16-Sep-16 09:34 30.964006 -99.263516 110 9493ft 182kts
16-Sep-16 09:35 30.944916 -99.209075 110 9489ft 180kts
16-Sep-16 09:36 30.926009 -99.155259 110 9484ft 178kts
16-Sep-16 09:37 30.907296 -99.102071 111 9481ft 176kts
16-Sep-16 09:38 30.888659 -99.049261 111 9481ft 176kts
16-Sep-16 09:39 30.870004 -98.996487 111 9481ft 175kts
16-Sep-16 09:40 30.851388 -98.943914 111 9481ft 175kts
16-Sep-16 09:41 30.832970 -98.891907 111 9481ft 175kts
16-Sep-16 09:42 30.814652 -98.839616 111 9481ft 175kts
16-Sep-16 09:43 30.796066 -98.787083 111 9481ft 175kts
16-Sep-16 09:44 30.778699 -98.734281 110 9481ft 175kts
16-Sep-16 09:45 30.761356 -98.681245 110 9481ft 175kts
16-Sep-16 09:46 30.744031 -98.628303 110 9481ft 175kts
16-Sep-16 09:47 30.726654 -98.575296 110 9518ft 175kts
16-Sep-16 09:48 30.709523 -98.523117 110 9518ft 176kts
16-Sep-16 09:49 30.692443 -98.471142 110 9518ft 177kts
16-Sep-16 09:50 30.674732 -98.417502 110 9500ft 178kts
16-Sep-16 09:51 30.656962 -98.363802 110 9500ft 178kts
16-Sep-16 09:52 30.639268 -98.310279 110 9500ft 178kts
16-Sep-16 09:53 30.621441 -98.256444 110 9500ft 178kts
16-Sep-16 09:54 30.603827 -98.203370 110 9500ft 178kts
16-Sep-16 09:55 30.589027 -98.158788 110 9500ft 178kts
16-Sep-16 09:56 30.568181 -98.096114 110 9487ft 178kts
16-Sep-16 09:57 30.553242 -98.051247 110 9477ft 178kts
16-Sep-16 09:58 30.535354 -97.997595 110 9464ft 178kts
16-Sep-16 09:59 30.517312 -97.943613 109 9452ft 179kts
16-Sep-16 10:00 30.499350 -97.889889 110 9445ft 178kts
16-Sep-16 10:01 30.481566 -97.836127 110 9444ft 178kts
16-Sep-16 10:02 30.463614 -97.782455 110 9442ft 178kts
16-Sep-16 10:03 30.445750 -97.729301 110 9439ft 178kts
16-Sep-16 10:04 30.428017 -97.676634 110 9437ft 178kts
16-Sep-16 10:05 30.410188 -97.623667 110 9427ft 178kts
16-Sep-16 10:06 30.392160 -97.570336 110 9426ft 178kts
16-Sep-16 10:07 30.378057 -97.515806 94 9426ft 176kts
16-Sep-16 10:08 30.374410 -97.458940 93 9426ft 177kts
16-Sep-16 10:09 30.371120 -97.402113 93 9428ft 176kts
16-Sep-16 10:10 30.367856 -97.345180 93 9433ft 176kts
16-Sep-16 10:11 30.364591 -97.288241 93 9437ft 176kts
16-Sep-16 10:12 30.361326 -97.231734 93 9441ft 176kts
16-Sep-16 10:13 30.357982 -97.174962 93 9444ft 176kts
16-Sep-16 10:14 30.354654 -97.118226 93 9444ft 175kts
16-Sep-16 10:15 30.351332 -97.061836 93 9444ft 175kts
16-Sep-16 10:16 30.348019 -97.005353 93 9444ft 175kts
16-Sep-16 10:17 30.344680 -96.948864 94 9444ft 175kts
16-Sep-16 10:18 30.341314 -96.892351 94 9443ft 176kts
16-Sep-16 10:19 30.338147 -96.835865 94 9442ft 176kts
16-Sep-16 10:20 30.334696 -96.779324 94 9441ft 176kts
16-Sep-16 10:21 30.331157 -96.722594 94 9440ft 176kts
16-Sep-16 10:22 30.327617 -96.666076 94 9437ft 176kts
16-Sep-16 10:23 30.324057 -96.609541 94 9434ft 176kts
16-Sep-16 10:24 30.320458 -96.552895 94 9431ft 175kts
16-Sep-16 10:25 30.316862 -96.496631 94 9428ft 175kts
16-Sep-16 10:26 30.313220 -96.440058 94 9426ft 175kts
16-Sep-16 10:27 30.309567 -96.383563 94 9424ft 175kts
16-Sep-16 10:28 30.305906 -96.327390 94 9421ft 175kts
16-Sep-16 10:29 30.302150 -96.271012 94 9419ft 175kts
16-Sep-16 10:30 30.298421 -96.214567 94 9416ft 175kts
16-Sep-16 10:31 30.294720 -96.158405 94 9413ft 175kts
16-Sep-16 10:32 30.290989 -96.102139 94 9410ft 175kts
16-Sep-16 10:33 30.289010 -96.045932 83 9408ft 175kts
16-Sep-16 10:34 30.294253 -95.990058 84 9405ft 175kts
16-Sep-16 10:35 30.299344 -95.934780 84 9404ft 175kts
16-Sep-16 10:36 30.304473 -95.879218 84 9405ft 175kts
16-Sep-16 10:37 30.309782 -95.822694 84 9404ft 175kts
16-Sep-16 10:38 30.314886 -95.766699 84 9404ft 175kts
16-Sep-16 10:39 30.319964 -95.710229 84 9404ft 175kts
16-Sep-16 10:40 30.324984 -95.654031 84 9405ft 175kts
16-Sep-16 10:41 30.329987 -95.597880 84 9407ft 175kts
16-Sep-16 10:42 30.334954 -95.541511 85 9408ft 175kts
16-Sep-16 10:43 30.339773 -95.485428 84 9408ft 175kts
16-Sep-16 10:44 30.343290 -95.429195 100 9410ft 175kts
16-Sep-16 10:45 30.333112 -95.373892 102 9408ft 175kts
16-Sep-16 10:46 30.322513 -95.318837 102 9408ft 175kts
16-Sep-16 10:47 30.311781 -95.263717 103 9408ft 175kts
16-Sep-16 10:48 30.300998 -95.208506 102 9408ft 175kts
16-Sep-16 10:49 30.290204 -95.153638 103 9408ft 175kts
16-Sep-16 10:50 30.279364 -95.098664 102 9408ft 175kts
16-Sep-16 10:51 30.268526 -95.043657 102 9408ft 175kts
16-Sep-16 10:52 30.257648 -94.988557 102 9406ft 175kts
16-Sep-16 10:53 30.246786 -94.933675 102 9404ft 174kts
16-Sep-16 10:54 30.237789 -94.888249 103 9403ft 174kts
16-Sep-16 10:55 30.225425 -94.824953 103 9400ft 173kts
16-Sep-16 10:56 30.216581 -94.780420 104 9617ft 163kts
16-Sep-16 10:57 30.206737 -94.731125 104 10107ft 155kts
16-Sep-16 10:58 30.197080 -94.682833 104 10607ft 153kts
16-Sep-16 10:59 30.189114 -94.634235 93 11109ft 154kts
16-Sep-16 11:00 30.187821 -94.584567 93 11515ft 160kts
16-Sep-16 11:01 30.186395 -94.530080 93 11519ft 174kts
16-Sep-16 11:02 30.184924 -94.473560 93 11518ft 177kts
16-Sep-16 11:03 30.183400 -94.416671 93 11518ft 177kts
16-Sep-16 11:04 30.181850 -94.360167 93 11518ft 177kts
16-Sep-16 11:05 30.180301 -94.303643 93 11503ft 178kts
16-Sep-16 11:06 30.178679 -94.246472 93 11500ft 178kts
16-Sep-16 11:07 30.176963 -94.189361 93 11499ft 178kts
16-Sep-16 11:08 30.175235 -94.132116 93 11499ft 178kts
16-Sep-16 11:09 30.173531 -94.074957 93 11499ft 178kts
16-Sep-16 11:10 30.171809 -94.018130 93 11503ft 177kts
16-Sep-16 11:11 30.170074 -93.961118 93 11508ft 177kts
16-Sep-16 11:12 30.168314 -93.903884 93 11512ft 177kts
16-Sep-16 11:13 30.166760 -93.848523 93 11517ft 177kts
16-Sep-16 11:14 30.165043 -93.791560 93 11518ft 177kts
16-Sep-16 11:15 30.163232 -93.734496 93 11518ft 177kts
16-Sep-16 11:16 30.161379 -93.677470 93 11518ft 177kts
16-Sep-16 11:17 30.159424 -93.620194 93 11518ft 177kts
16-Sep-16 11:18 30.157472 -93.563049 93 11518ft 177kts
16-Sep-16 11:19 30.155531 -93.505995 93 11518ft 177kts
16-Sep-16 11:20 30.153544 -93.449101 93 11518ft 177kts
16-Sep-16 11:21 30.151555 -93.392110 93 11518ft 177kts
16-Sep-16 11:22 30.149559 -93.334983 93 11518ft 177kts
16-Sep-16 11:23 30.147527 -93.277973 93 11520ft 177kts
16-Sep-16 11:24 30.145482 -93.221037 93 11522ft 177kts
16-Sep-16 11:25 30.143400 -93.163971 93 11523ft 177kts
16-Sep-16 11:26 30.141300 -93.106721 93 11524ft 177kts
16-Sep-16 11:27 30.143992 -93.049668 88 11528ft 178kts
16-Sep-16 11:28 30.146904 -92.992572 88 11530ft 178kts
16-Sep-16 11:29 30.149789 -92.935092 88 11533ft 179kts
16-Sep-16 11:30 30.152653 -92.878717 89 11536ft 180kts
16-Sep-16 11:31 30.155679 -92.820788 89 11536ft 181kts
16-Sep-16 11:32 30.158561 -92.762475 89 11536ft 181kts
16-Sep-16 11:33 30.161325 -92.704460 89 11536ft 181kts
16-Sep-16 11:34 30.164080 -92.646104 89 11536ft 181kts
16-Sep-16 11:35 30.166817 -92.588130 89 11538ft 181kts
16-Sep-16 11:36 30.169529 -92.530230 89 11540ft 181kts
16-Sep-16 11:37 30.172191 -92.471932 89 11542ft 180kts
16-Sep-16 11:38 30.174863 -92.413884 89 11545ft 180kts
16-Sep-16 11:39 30.177516 -92.355965 89 11545ft 180kts
16-Sep-16 11:40 30.180144 -92.297928 89 11546ft 180kts
16-Sep-16 11:41 30.182686 -92.239977 89 11547ft 180kts
16-Sep-16 11:42 30.185261 -92.181742 89 11548ft 180kts
16-Sep-16 11:43 30.187781 -92.123873 89 11545ft 181kts
16-Sep-16 11:44 30.190323 -92.065455 89 11546ft 182kts
16-Sep-16 11:45 30.192829 -92.007107 89 11546ft 182kts
16-Sep-16 11:46 30.211193 -91.950754 66 11229ft 196kts
16-Sep-16 11:47 30.234868 -91.893961 66 10732ft 198kts
16-Sep-16 11:48 30.254432 -91.847834 65 10332ft 199kts
16-Sep-16 11:49 30.278600 -91.790373 65 9834ft 198kts
16-Sep-16 11:50 30.306169 -91.724551 65 9544ft 187kts
16-Sep-16 11:51 30.324863 -91.679709 66 9548ft 183kts
16-Sep-16 11:52 30.347021 -91.626569 66 9548ft 181kts
16-Sep-16 11:53 30.368726 -91.574435 66 9542ft 178kts
16-Sep-16 11:54 30.390289 -91.522553 66 9539ft 178kts
16-Sep-16 11:55 30.411863 -91.470587 67 9539ft 179kts
16-Sep-16 11:56 30.433513 -91.418372 67 9534ft 179kts
16-Sep-16 11:57 30.455065 -91.366197 67 9534ft 179kts
16-Sep-16 11:58 30.476592 -91.314009 66 9536ft 179kts
16-Sep-16 11:59 30.486353 -91.258968 88 9537ft 176kts
16-Sep-16 12:00 30.489730 -91.202024 89 9536ft 177kts
16-Sep-16 12:01 30.492827 -91.145116 89 9537ft 177kts
16-Sep-16 12:02 30.495822 -91.089365 89 9538ft 177kts
16-Sep-16 12:03 30.498833 -91.032321 89 9537ft 177kts
16-Sep-16 12:04 30.501844 -90.975093 89 9536ft 177kts
16-Sep-16 12:05 30.504721 -90.917828 89 9539ft 178kts
16-Sep-16 12:06 30.507725 -90.861206 88 9540ft 178kts
16-Sep-16 12:07 30.510814 -90.803823 89 9543ft 178kts
16-Sep-16 12:08 30.513737 -90.746259 89 9545ft 178kts
16-Sep-16 12:09 30.516610 -90.689124 89 9546ft 178kts
16-Sep-16 12:10 30.519490 -90.631422 89 9546ft 178kts
16-Sep-16 12:11 30.522308 -90.574139 89 9546ft 178kts
16-Sep-16 12:12 30.525053 -90.516675 89 9546ft 178kts
16-Sep-16 12:13 30.527810 -90.459163 89 9546ft 178kts
16-Sep-16 12:14 30.530569 -90.401663 89 9546ft 178kts
16-Sep-16 12:15 30.533292 -90.344140 89 9546ft 178kts
16-Sep-16 12:16 30.536010 -90.286499 89 9546ft 178kts
16-Sep-16 12:17 30.538694 -90.229049 89 9546ft 178kts
16-Sep-16 12:18 30.541296 -90.171389 89 9546ft 178kts
16-Sep-16 12:19 30.543883 -90.114106 89 9546ft 178kts
16-Sep-16 12:20 30.546493 -90.056245 89 9546ft 179kts
16-Sep-16 12:21 30.549068 -89.998506 89 9546ft 179kts
16-Sep-16 12:22 30.551531 -89.942381 89 9544ft 179kts
16-Sep-16 12:23 30.554075 -89.885187 89 9544ft 179kts
16-Sep-16 12:24 30.556769 -89.828073 89 9544ft 179kts
16-Sep-16 12:25 30.559313 -89.770472 89 9544ft 179kts
16-Sep-16 12:26 30.561989 -89.712999 89 9546ft 178kts
16-Sep-16 12:27 30.565179 -89.655406 89 9549ft 178kts
16-Sep-16 12:28 30.568343 -89.597929 89 9552ft 178kts
16-Sep-16 12:29 30.571497 -89.540525 89 9554ft 177kts
16-Sep-16 12:30 30.574619 -89.483375 89 9555ft 177kts
16-Sep-16 12:31 30.583020 -89.426932 75 9556ft 179kts
16-Sep-16 12:32 30.597490 -89.371292 76 9556ft 179kts
16-Sep-16 12:33 30.611814 -89.315812 76 9555ft 179kts
16-Sep-16 12:34 30.619281 -89.258567 84 9554ft 179kts
16-Sep-16 12:35 30.626228 -89.201217 84 9554ft 179kts
16-Sep-16 12:36 30.633132 -89.144049 84 9553ft 179kts
16-Sep-16 12:37 30.640052 -89.086505 84 9553ft 179kts
16-Sep-16 12:38 30.646941 -89.029236 84 9554ft 179kts
16-Sep-16 12:39 30.653809 -88.972002 84 9556ft 178kts
16-Sep-16 12:40 30.660616 -88.915055 84 9558ft 177kts
16-Sep-16 12:41 30.667277 -88.859848 84 9561ft 176kts
16-Sep-16 12:42 30.674047 -88.803632 85 9563ft 175kts
16-Sep-16 12:43 30.679576 -88.756807 84 9565ft 175kts
16-Sep-16 12:44 30.686141 -88.700916 84 9567ft 174kts
16-Sep-16 12:45 30.692620 -88.645398 84 9569ft 173kts
16-Sep-16 12:46 30.699066 -88.590012 83 9571ft 173kts
16-Sep-16 12:47 30.705500 -88.534611 83 9574ft 173kts
16-Sep-16 12:48 30.711935 -88.479338 83 9581ft 172kts
16-Sep-16 12:49 30.718319 -88.424025 84 9587ft 172kts
16-Sep-16 12:50 30.724663 -88.368906 84 9593ft 172kts
16-Sep-16 12:51 30.728737 -88.313338 87 9599ft 172kts
16-Sep-16 12:52 30.732319 -88.257886 87 9599ft 172kts
16-Sep-16 12:53 30.735942 -88.202111 87 9599ft 172kts
16-Sep-16 12:54 30.739559 -88.146264 87 9599ft 172kts
16-Sep-16 12:55 30.743129 -88.090715 87 9599ft 172kts
16-Sep-16 12:56 30.746623 -88.035254 87 9599ft 172kts
16-Sep-16 12:57 30.750132 -87.979429 87 9599ft 172kts
16-Sep-16 12:58 30.753613 -87.923884 87 9599ft 172kts
16-Sep-16 12:59 30.757100 -87.869734 87 9600ft 172kts
16-Sep-16 13:00 30.758484 -87.848760 87 9600ft 172kts
16-Sep-16 13:01 30.761519 -87.801076 88 9581ft 174kts
16-Sep-16 13:02 30.764899 -87.745606 88 9578ft 174kts
16-Sep-16 13:03 30.767492 -87.703167 88 9495ft 176kts
16-Sep-16 13:04 30.770924 -87.646646 88 9492ft 175kts
16-Sep-16 13:05 30.774307 -87.590223 88 9490ft 174kts
16-Sep-16 13:06 30.777687 -87.533651 88 9493ft 174kts
16-Sep-16 13:07 30.781027 -87.477491 88 9496ft 174kts
16-Sep-16 13:08 30.784371 -87.420927 88 9499ft 174kts
16-Sep-16 13:09 30.787680 -87.364462 88 9502ft 174kts
16-Sep-16 13:10 30.790965 -87.308093 88 9504ft 175kts
16-Sep-16 13:11 30.794181 -87.251438 88 9505ft 175kts
16-Sep-16 13:12 30.797389 -87.194594 88 9506ft 175kts
16-Sep-16 13:13 30.800605 -87.137929 88 9507ft 176kts
16-Sep-16 13:14 30.803814 -87.080917 88 9508ft 176kts
16-Sep-16 13:15 30.806976 -87.024450 88 9508ft 175kts
16-Sep-16 13:16 30.810083 -86.967487 88 9508ft 175kts
16-Sep-16 13:17 30.813183 -86.910766 88 9508ft 175kts
16-Sep-16 13:18 30.816384 -86.855062 88 9509ft 175kts
16-Sep-16 13:19 30.819556 -86.798416 88 9511ft 176kts
16-Sep-16 13:20 30.822649 -86.741290 88 9513ft 177kts
16-Sep-16 13:21 30.825517 -86.684513 86 9516ft 174kts
16-Sep-16 13:22 30.824897 -86.628088 91 9518ft 173kts
16-Sep-16 13:23 30.823763 -86.571922 91 9518ft 173kts
16-Sep-16 13:24 30.822599 -86.515852 91 9518ft 173kts
16-Sep-16 13:25 30.821358 -86.459336 91 9518ft 173kts
16-Sep-16 13:26 30.820145 -86.403355 91 9518ft 173kts
16-Sep-16 13:27 30.818916 -86.347167 91 9517ft 173kts
16-Sep-16 13:28 30.817649 -86.291111 91 9517ft 173kts
16-Sep-16 13:29 30.816358 -86.234724 91 9517ft 173kts
16-Sep-16 13:30 30.815045 -86.178506 91 9517ft 173kts
16-Sep-16 13:31 30.813677 -86.122416 92 9517ft 173kts
16-Sep-16 13:32 30.812232 -86.066458 92 9515ft 173kts
16-Sep-16 13:33 30.810804 -86.010639 92 9514ft 172kts
16-Sep-16 13:34 30.809421 -85.954711 92 9513ft 172kts
16-Sep-16 13:35 30.808255 -85.908298 93 9511ft 172kts
16-Sep-16 13:36 30.800079 -85.845368 103 9514ft 171kts
16-Sep-16 13:37 30.791842 -85.800064 102 9514ft 171kts
16-Sep-16 13:38 30.780535 -85.736375 102 9515ft 171kts
16-Sep-16 13:39 30.772558 -85.691261 102 9515ft 171kts
16-Sep-16 13:40 30.762904 -85.636738 102 9513ft 171kts
16-Sep-16 13:41 30.753188 -85.581982 102 9482ft 172kts
16-Sep-16 13:42 30.743510 -85.527489 102 9478ft 172kts
16-Sep-16 13:43 30.733780 -85.472915 102 9474ft 172kts
16-Sep-16 13:44 30.723995 -85.418136 103 9472ft 172kts
16-Sep-16 13:45 30.714207 -85.363585 102 9471ft 172kts
16-Sep-16 13:46 30.704407 -85.309048 102 9471ft 172kts
16-Sep-16 13:47 30.694575 -85.254542 102 9471ft 172kts
16-Sep-16 13:48 30.684740 -85.200170 102 9471ft 172kts
16-Sep-16 13:49 30.674873 -85.145853 102 9471ft 172kts
16-Sep-16 13:50 30.664985 -85.091485 102 9471ft 172kts
16-Sep-16 13:51 30.655005 -85.036690 102 9471ft 173kts
16-Sep-16 13:52 30.645043 -84.982066 101 9471ft 173kts
16-Sep-16 13:53 30.634975 -84.926957 101 9473ft 174kts
16-Sep-16 13:54 30.625241 -84.873326 101 9477ft 174kts
16-Sep-16 13:55 30.615289 -84.818262 101 9479ft 174kts
16-Sep-16 13:56 30.605161 -84.763042 101 9482ft 174kts
16-Sep-16 13:57 30.595021 -84.708069 101 9483ft 174kts
16-Sep-16 13:58 30.584797 -84.652851 101 9483ft 175kts
16-Sep-16 13:59 30.574610 -84.598006 101 9482ft 175kts
16-Sep-16 14:00 30.564362 -84.542953 101 9482ft 175kts
16-Sep-16 14:01 30.554098 -84.487762 102 9472ft 174kts
16-Sep-16 14:02 30.543817 -84.433005 102 9472ft 173kts
16-Sep-16 14:03 30.533550 -84.378290 102 9472ft 173kts
16-Sep-16 14:04 30.523310 -84.323782 102 9472ft 173kts
16-Sep-16 14:05 30.512955 -84.268859 102 9472ft 173kts
16-Sep-16 14:06 30.502642 -84.214315 102 9472ft 173kts
16-Sep-16 14:07 30.492271 -84.159576 102 9475ft 173kts
16-Sep-16 14:08 30.481917 -84.105049 102 9477ft 173kts
16-Sep-16 14:09 30.471525 -84.050440 102 9478ft 173kts
16-Sep-16 14:10 30.461031 -83.995386 102 9478ft 173kts
16-Sep-16 14:11 30.450609 -83.940847 102 9480ft 173kts
16-Sep-16 14:12 30.440609 -83.888566 102 9483ft 173kts
16-Sep-16 14:13 30.430358 -83.834095 102 9486ft 174kts
16-Sep-16 14:14 30.419876 -83.779359 102 9489ft 174kts
16-Sep-16 14:15 30.409345 -83.724738 102 9489ft 174kts
16-Sep-16 14:16 30.398750 -83.669946 102 9487ft 174kts
16-Sep-16 14:17 30.388116 -83.615085 102 9485ft 174kts
16-Sep-16 14:18 30.377426 -83.560069 102 9404ft 178kts
16-Sep-16 14:19 30.367156 -83.507302 102 8884ft 159kts
16-Sep-16 14:20 30.357353 -83.457006 102 8390ft 165kts
16-Sep-16 14:21 30.347113 -83.404698 102 7889ft 167kts
16-Sep-16 14:22 30.336857 -83.352419 102 7388ft 166kts
16-Sep-16 14:23 30.326597 -83.300181 102 6885ft 166kts
16-Sep-16 14:24 30.316337 -83.248090 102 6381ft 165kts
16-Sep-16 14:25 30.306235 -83.196947 102 5883ft 164kts
16-Sep-16 14:26 30.295624 -83.145626 106 5379ft 163kts
16-Sep-16 14:27 30.282699 -83.095449 105 4874ft 162kts
16-Sep-16 14:28 30.270241 -83.045729 105 4370ft 160kts
16-Sep-16 14:29 30.260079 -83.004988 105 3952ft 159kts
16-Sep-16 14:30 30.260079 -83.004988 105 3952ft 159kts
16-Sep-16 14:31 30.260079 -83.004988 105 3952ft 159kts
16-Sep-16 14:32 30.253502 -82.978596 105 3680ft 158kts
16-Sep-16 14:33 30.244305 -82.929102 100 3174ft 157kts
16-Sep-16 14:34 30.236070 -82.882566 100 2996ft 137kts
16-Sep-16 14:35 30.230047 -82.847825 100 2998ft 128kts
16-Sep-16 14:36 30.221816 -82.801158 100 2999ft 126kts
16-Sep-16 14:37 30.214803 -82.761770 100 3000ft 124kts
16-Sep-16 14:38 30.207966 -82.723798 100 2547ft 100kts
16-Sep-16 14:39 30.201657 -82.699249 116 2024ft 96kts
16-Sep-16 14:40 30.192059 -82.670848 96 1479ft 94kts
16-Sep-16 14:41 30.189483 -82.642957 98 1071ft 82kts
16-Sep-16 14:42 30.186763 -82.616784 95 628ft 81kts
16-Sep-16 14:43 30.184132 -82.590810 94 244ft 79kts
16-Sep-16 14:44 30.182632 -82.576659 95 204ft 23kts
16-Sep-16 14:45 30.183561 -82.575226 278 204ft 9kts
16-Sep-16 14:46 30.184162 -82.580923 276 204ft 20kts
16-Sep-16 14:47 30.185395 -82.582380 41 204ft 4kts
16-Sep-16 14:48 30.185997 -82.582707 111 204ft 0kts
16-Sep-16 14:49 30.185997 -82.582707 111 204ft 0kts

Navigation Log

Ident Type
Flight plan parsing failed, navigation log unavailable